createdAt,value
2018-04-13T00:00:16.708Z,0
2018-04-13T00:01:25.538Z,0
2018-04-13T00:02:34.481Z,0
2018-04-13T00:03:43.316Z,0
2018-04-13T00:04:52.703Z,0
2018-04-13T00:06:01.538Z,0
2018-04-13T00:07:10.372Z,0
2018-04-13T00:08:19.208Z,0
2018-04-13T00:09:28.043Z,0
2018-04-13T00:10:36.888Z,0
2018-04-13T00:11:45.714Z,0
2018-04-13T00:12:54.548Z,0
2018-04-13T00:14:03.581Z,0
2018-04-13T00:15:12.417Z,0
2018-04-13T00:16:21.528Z,0
2018-04-13T00:17:30.362Z,0
2018-04-13T00:18:39.198Z,0
2018-04-13T00:19:48.131Z,0
2018-04-13T00:20:56.966Z,0
2018-04-13T00:22:06.346Z,0
2018-04-13T00:23:15.179Z,0
2018-04-13T00:24:24.012Z,0
2018-04-13T00:25:32.849Z,0
2018-04-13T00:26:41.682Z,0
2018-04-13T00:27:50.514Z,0
2018-04-13T00:28:59.629Z,0
2018-04-13T00:30:08.466Z,0
2018-04-13T00:31:17.299Z,0
2018-04-13T00:32:26.135Z,0
2018-04-13T00:33:35.247Z,0
2018-04-13T00:34:44.083Z,0
2018-04-13T00:35:53.192Z,0
2018-04-13T00:37:02.349Z,0
2018-04-13T00:38:11.459Z,0
2018-04-13T00:39:20.574Z,0
2018-04-13T00:40:29.412Z,0
2018-04-13T00:41:38.246Z,0
2018-04-13T00:42:47.358Z,0
2018-04-13T00:43:56.193Z,0
2018-04-13T00:45:05.030Z,0
2018-04-13T00:46:14.139Z,0
2018-04-13T00:47:22.975Z,0
2018-04-13T00:48:31.861Z,0
2018-04-13T00:49:40.695Z,0
2018-04-13T00:50:49.526Z,0
2018-04-13T00:51:58.634Z,0
2018-04-13T00:53:07.470Z,0
2018-04-13T00:54:16.631Z,0
2018-04-13T00:55:26.030Z,0
2018-04-13T00:56:34.865Z,0
2018-04-13T00:57:43.703Z,0
2018-04-13T00:58:52.535Z,0
2018-04-13T01:00:01.519Z,0
2018-04-13T01:01:10.629Z,0
2018-04-13T01:02:19.465Z,0
2018-04-13T01:03:28.299Z,0
2018-04-13T01:04:37.132Z,0
2018-04-13T01:05:46.370Z,0
2018-04-13T01:06:55.200Z,0
2018-04-13T01:08:04.039Z,0
2018-04-13T01:09:12.870Z,0
2018-04-13T01:10:21.702Z,0
2018-04-13T01:11:30.841Z,0
2018-04-13T01:12:39.674Z,0
2018-04-13T01:13:48.783Z,0
2018-04-13T01:14:57.618Z,0
2018-04-13T01:16:06.456Z,0
2018-04-13T01:17:15.292Z,0
2018-04-13T01:18:24.126Z,0
2018-04-13T01:19:32.962Z,0
2018-04-13T01:20:41.795Z,0
2018-04-13T01:21:50.630Z,0
2018-04-13T01:22:59.464Z,0
2018-04-13T01:24:08.297Z,0
2018-04-13T01:25:17.130Z,0
2018-04-13T01:26:25.964Z,0
2018-04-13T01:27:35.073Z,0
2018-04-13T01:28:44.210Z,0
2018-04-13T01:29:53.323Z,0
2018-04-13T01:31:02.169Z,0
2018-04-13T01:32:11.276Z,0
2018-04-13T01:33:20.109Z,0
2018-04-13T01:34:29.147Z,0
2018-04-13T01:35:38.256Z,0
2018-04-13T01:36:47.093Z,0
2018-04-13T01:37:55.925Z,0
2018-04-13T01:39:04.764Z,0
2018-04-13T01:40:14.201Z,0
2018-04-13T01:41:23.037Z,0
2018-04-13T01:42:31.873Z,0
2018-04-13T01:43:40.709Z,0
2018-04-13T01:44:49.543Z,0
2018-04-13T01:45:58.426Z,0
2018-04-13T01:47:07.597Z,0
2018-04-13T01:48:16.707Z,0
2018-04-13T01:49:25.540Z,0
2018-04-13T01:50:34.920Z,0
2018-04-13T01:51:43.757Z,0
2018-04-13T01:52:52.870Z,0
2018-04-13T01:54:02.000Z,0
2018-04-13T01:55:10.831Z,0
2018-04-13T01:56:19.666Z,0
2018-04-13T01:57:29.059Z,0
2018-04-13T01:58:37.890Z,0
2018-04-13T01:59:46.728Z,0
2018-04-13T02:00:55.559Z,0
2018-04-13T02:02:04.677Z,0
2018-04-13T02:03:13.861Z,0
2018-04-13T02:04:22.696Z,0
2018-04-13T02:05:31.535Z,0
2018-04-13T02:06:40.370Z,0
2018-04-13T02:07:49.204Z,0
2018-04-13T02:08:58.037Z,0
2018-04-13T02:10:06.876Z,0
2018-04-13T02:11:15.719Z,0
2018-04-13T02:12:24.557Z,0
2018-04-13T02:13:33.394Z,0
2018-04-13T02:14:42.378Z,0
2018-04-13T02:15:51.213Z,0
2018-04-13T02:17:00.048Z,0
2018-04-13T02:18:09.157Z,0
2018-04-13T02:19:18.265Z,0
2018-04-13T02:20:27.251Z,0
2018-04-13T02:21:36.088Z,0
2018-04-13T02:22:44.923Z,0
2018-04-13T02:23:53.760Z,0
2018-04-13T02:25:02.591Z,0
2018-04-13T02:26:11.723Z,0
2018-04-13T02:27:20.559Z,0
2018-04-13T02:28:29.395Z,0
2018-04-13T02:29:38.227Z,0
2018-04-13T02:30:47.346Z,0
2018-04-13T02:31:56.981Z,0
2018-04-13T02:33:05.821Z,0
2018-04-13T02:34:14.675Z,0
2018-04-13T02:35:24.057Z,0
2018-04-13T02:36:32.891Z,0
2018-04-13T02:37:42.324Z,0
2018-04-13T02:38:51.433Z,0
2018-04-13T02:40:00.277Z,0
2018-04-13T02:41:09.658Z,0
2018-04-13T02:42:19.052Z,0
2018-04-13T02:43:28.158Z,0
2018-04-13T02:44:36.996Z,0
2018-04-13T02:45:45.829Z,0
2018-04-13T02:46:55.218Z,0
2018-04-13T02:48:04.337Z,0
2018-04-13T02:49:13.230Z,0
2018-04-13T02:50:22.062Z,0
2018-04-13T02:51:31.172Z,0
2018-04-13T02:52:40.294Z,0
2018-04-13T02:53:49.124Z,0
2018-04-13T02:54:58.540Z,0
2018-04-13T02:56:07.382Z,0
2018-04-13T02:57:16.762Z,0
2018-04-13T02:58:25.882Z,0
2018-04-13T02:59:34.721Z,0
2018-04-13T03:00:43.558Z,0
2018-04-13T03:01:52.674Z,0
2018-04-13T03:03:01.510Z,0
2018-04-13T03:04:10.899Z,0
2018-04-13T03:05:20.013Z,0
2018-04-13T03:06:29.233Z,0
2018-04-13T03:07:38.366Z,0
2018-04-13T03:08:47.464Z,0
2018-04-13T03:09:56.853Z,0
2018-04-13T03:11:05.687Z,0
2018-04-13T03:12:14.820Z,0
2018-04-13T03:13:23.929Z,0
2018-04-13T03:14:32.763Z,0
2018-04-13T03:15:41.603Z,0
2018-04-13T03:16:50.429Z,0
2018-04-13T03:17:59.541Z,0
2018-04-13T03:19:08.663Z,0
2018-04-13T03:20:17.497Z,0
2018-04-13T03:21:26.331Z,0
2018-04-13T03:22:35.165Z,0
2018-04-13T03:23:44.101Z,0
2018-04-13T03:24:53.215Z,0
2018-04-13T03:26:02.048Z,0
2018-04-13T03:27:10.882Z,0
2018-04-13T03:28:19.715Z,0
2018-04-13T03:29:28.699Z,0
2018-04-13T03:30:37.826Z,0
2018-04-13T03:31:47.490Z,0
2018-04-13T03:32:56.593Z,0
2018-04-13T03:34:05.431Z,0
2018-04-13T03:35:14.268Z,0
2018-04-13T03:36:23.095Z,0
2018-04-13T03:37:32.475Z,0
2018-04-13T03:38:41.312Z,0
2018-04-13T03:39:50.150Z,0
2018-04-13T03:40:59.038Z,0
2018-04-13T03:42:07.868Z,0
2018-04-13T03:43:16.701Z,0
2018-04-13T03:44:25.536Z,0
2018-04-13T03:45:34.370Z,0
2018-04-13T03:46:43.738Z,0
2018-04-13T03:47:52.570Z,0
2018-04-13T03:49:01.950Z,0
2018-04-13T03:50:10.791Z,0
2018-04-13T03:51:19.903Z,0
2018-04-13T03:52:28.785Z,0
2018-04-13T03:53:37.888Z,0
2018-04-13T03:54:46.722Z,0
2018-04-13T03:55:55.554Z,0
2018-04-13T03:57:04.663Z,0
2018-04-13T03:58:13.923Z,0
2018-04-13T03:59:22.761Z,0
2018-04-13T04:00:31.592Z,0
2018-04-13T04:01:40.423Z,0
2018-04-13T04:02:49.268Z,0
2018-04-13T04:03:58.377Z,0
2018-04-13T04:05:07.208Z,0
2018-04-13T04:06:16.042Z,0
2018-04-13T04:07:25.155Z,0
2018-04-13T04:08:33.987Z,0
2018-04-13T04:09:43.193Z,0
2018-04-13T04:10:52.025Z,0
2018-04-13T04:12:01.131Z,0
2018-04-13T04:13:09.965Z,0
2018-04-13T04:14:18.795Z,0
2018-04-13T04:15:27.682Z,0
2018-04-13T04:16:36.514Z,0
2018-04-13T04:17:45.621Z,0
2018-04-13T04:18:54.739Z,0
2018-04-13T04:20:03.849Z,0
2018-04-13T04:21:12.833Z,0
2018-04-13T04:22:21.945Z,0
2018-04-13T04:23:30.778Z,0
2018-04-13T04:24:39.613Z,0
2018-04-13T04:25:48.728Z,0
2018-04-13T04:26:57.885Z,0
2018-04-13T04:28:06.716Z,5
2018-04-13T04:29:15.551Z,5
2018-04-13T04:30:24.384Z,5
2018-04-13T04:31:33.220Z,5
2018-04-13T04:32:42.379Z,5
2018-04-13T04:33:51.212Z,5
2018-04-13T04:35:00.055Z,5
2018-04-13T04:36:08.883Z,5
2018-04-13T04:37:17.719Z,10
2018-04-13T04:38:26.655Z,10
2018-04-13T04:39:35.489Z,10
2018-04-13T04:40:44.598Z,10
2018-04-13T04:41:53.434Z,15
2018-04-13T04:43:02.269Z,15
2018-04-13T04:44:11.401Z,15
2018-04-13T04:45:20.238Z,15
2018-04-13T04:46:29.071Z,20
2018-04-13T04:47:37.905Z,20
2018-04-13T04:48:46.736Z,20
2018-04-13T04:49:55.569Z,25
2018-04-13T04:51:04.680Z,25
2018-04-13T04:52:13.516Z,25
2018-04-13T04:53:22.348Z,25
2018-04-13T04:54:31.181Z,30
2018-04-13T04:55:40.442Z,30
2018-04-13T04:56:49.547Z,30
2018-04-13T04:57:58.378Z,30
2018-04-13T04:59:07.215Z,30
2018-04-13T05:00:16.042Z,30
2018-04-13T05:01:25.251Z,30
2018-04-13T05:02:34.086Z,30
2018-04-13T05:03:42.920Z,30
2018-04-13T05:04:52.026Z,35
2018-04-13T05:06:00.861Z,35
2018-04-13T05:07:09.966Z,35
2018-04-13T05:08:18.800Z,30
2018-04-13T05:09:27.633Z,30
2018-04-13T05:10:36.744Z,35
2018-04-13T05:11:45.852Z,30
2018-04-13T05:12:54.686Z,30
2018-04-13T05:14:03.520Z,30
2018-04-13T05:15:12.356Z,30
2018-04-13T05:16:21.191Z,30
2018-04-13T05:17:30.029Z,30
2018-04-13T05:18:38.858Z,30
2018-04-13T05:19:47.696Z,30
2018-04-13T05:20:56.528Z,35
2018-04-13T05:22:05.361Z,35
2018-04-13T05:23:14.472Z,35
2018-04-13T05:24:23.886Z,40
2018-04-13T05:25:32.722Z,40
2018-04-13T05:26:41.559Z,40
2018-04-13T05:27:50.940Z,45
2018-04-13T05:28:59.775Z,45
2018-04-13T05:30:08.811Z,45
2018-04-13T05:31:17.644Z,45
2018-04-13T05:32:26.483Z,45
2018-04-13T05:33:35.311Z,50
2018-04-13T05:34:44.150Z,50
2018-04-13T05:35:53.356Z,50
2018-04-13T05:37:02.192Z,55
2018-04-13T05:38:11.306Z,55
2018-04-13T05:39:20.140Z,55
2018-04-13T05:40:29.247Z,60
2018-04-13T05:41:38.130Z,60
2018-04-13T05:42:46.965Z,60
2018-04-13T05:43:55.797Z,60
2018-04-13T05:45:04.639Z,60
2018-04-13T05:46:14.039Z,60
2018-04-13T05:47:23.359Z,65
2018-04-13T05:48:32.189Z,60
2018-04-13T05:49:41.023Z,60
2018-04-13T05:50:50.137Z,65
2018-04-13T05:51:58.972Z,65
2018-04-13T05:53:08.184Z,65
2018-04-13T05:54:17.293Z,65
2018-04-13T05:55:26.125Z,65
2018-04-13T05:56:34.963Z,60
2018-04-13T05:57:43.795Z,55
2018-04-13T05:58:52.679Z,55
2018-04-13T06:00:01.515Z,50
2018-04-13T06:01:10.348Z,50
2018-04-13T06:02:19.184Z,45
2018-04-13T06:03:28.017Z,45
2018-04-13T06:04:36.950Z,45
2018-04-13T06:05:45.786Z,45
2018-04-13T06:06:54.618Z,50
2018-04-13T06:08:03.453Z,50
2018-04-13T06:09:12.560Z,55
2018-04-13T06:10:22.059Z,55
2018-04-13T06:11:31.183Z,60
2018-04-13T06:12:40.016Z,65
2018-04-13T06:13:48.850Z,65
2018-04-13T06:14:57.682Z,70
2018-04-13T06:16:06.772Z,75
2018-04-13T06:17:15.884Z,80
2018-04-13T06:18:24.721Z,90
2018-04-13T06:19:33.561Z,95
2018-04-13T06:20:42.395Z,95
2018-04-13T06:21:51.551Z,100
2018-04-13T06:23:00.658Z,105
2018-04-13T06:24:09.493Z,100
2018-04-13T06:25:18.325Z,100
2018-04-13T06:26:27.162Z,105
2018-04-13T06:27:36.372Z,115
2018-04-13T06:28:45.211Z,125
2018-04-13T06:29:54.052Z,135
2018-04-13T06:31:03.163Z,145
2018-04-13T06:32:11.995Z,155
2018-04-13T06:33:21.090Z,160
2018-04-13T06:34:29.922Z,160
2018-04-13T06:35:39.031Z,165
2018-04-13T06:36:47.864Z,170
2018-04-13T06:37:56.971Z,180
2018-04-13T06:39:06.078Z,190
2018-04-13T06:40:15.463Z,200
2018-04-13T06:41:24.296Z,210
2018-04-13T06:42:33.129Z,220
2018-04-13T06:43:42.287Z,225
2018-04-13T06:44:51.656Z,235
2018-04-13T06:46:00.490Z,240
2018-04-13T06:47:09.329Z,240
2018-04-13T06:48:18.165Z,235
2018-04-13T06:49:27.286Z,230
2018-04-13T06:50:36.271Z,230
2018-04-13T06:51:45.383Z,230
2018-04-13T06:52:54.214Z,230
2018-04-13T06:54:03.051Z,225
2018-04-13T06:55:12.163Z,225
2018-04-13T06:56:21.047Z,230
2018-04-13T06:57:30.162Z,235
2018-04-13T06:58:38.996Z,240
2018-04-13T06:59:47.829Z,245
2018-04-13T07:00:56.938Z,245
2018-04-13T07:02:05.829Z,250
2018-04-13T07:03:14.660Z,245
2018-04-13T07:04:23.493Z,240
2018-04-13T07:05:32.328Z,240
2018-04-13T07:06:41.439Z,235
2018-04-13T07:07:50.583Z,235
2018-04-13T07:08:59.414Z,235
2018-04-13T07:10:08.249Z,230
2018-04-13T07:11:17.086Z,225
2018-04-13T07:12:25.924Z,225
2018-04-13T07:13:35.153Z,225
2018-04-13T07:14:44.241Z,230
2018-04-13T07:15:53.079Z,230
2018-04-13T07:17:01.928Z,235
2018-04-13T07:18:10.750Z,240
2018-04-13T07:19:20.072Z,230
2018-04-13T07:20:29.123Z,220
2018-04-13T07:21:37.957Z,200
2018-04-13T07:22:46.795Z,185
2018-04-13T07:23:55.627Z,180
2018-04-13T07:25:04.845Z,170
2018-04-13T07:26:13.989Z,165
2018-04-13T07:27:22.795Z,155
2018-04-13T07:28:31.629Z,145
2018-04-13T07:29:40.467Z,135
2018-04-13T07:30:49.456Z,125
2018-04-13T07:31:58.660Z,115
2018-04-13T07:33:07.572Z,115
2018-04-13T07:34:16.259Z,120
2018-04-13T07:35:25.095Z,125
2018-04-13T07:36:34.034Z,130
2018-04-13T07:37:42.869Z,130
2018-04-13T07:38:51.704Z,130
2018-04-13T07:40:00.537Z,125
2018-04-13T07:41:09.650Z,120
2018-04-13T07:42:18.584Z,115
2018-04-13T07:43:27.424Z,110
2018-04-13T07:44:36.646Z,110
2018-04-13T07:45:45.447Z,110
2018-04-13T07:46:54.572Z,105
2018-04-13T07:48:03.560Z,100
2018-04-13T07:49:12.666Z,100
2018-04-13T07:50:21.500Z,100
2018-04-13T07:51:30.337Z,105
2018-04-13T07:52:40.275Z,110
2018-04-13T07:53:49.432Z,115
2018-04-13T07:54:58.267Z,115
2018-04-13T07:56:07.100Z,120
2018-04-13T07:57:15.935Z,125
2018-04-13T07:58:25.105Z,130
2018-04-13T07:59:33.751Z,145
2018-04-13T08:00:42.588Z,160
2018-04-13T08:01:51.418Z,190
2018-04-13T08:03:00.256Z,220
2018-04-13T08:04:09.092Z,245
2018-04-13T08:05:17.927Z,260
2018-04-13T08:06:27.049Z,265
2018-04-13T08:07:35.883Z,280
2018-04-13T08:08:44.718Z,290
2018-04-13T08:09:53.826Z,315
2018-04-13T08:11:02.661Z,335
2018-04-13T08:12:11.494Z,345
2018-04-13T08:13:20.734Z,340
2018-04-13T08:14:29.569Z,340
2018-04-13T08:15:38.408Z,345
2018-04-13T08:16:47.390Z,355
2018-04-13T08:17:56.249Z,365
2018-04-13T08:19:05.339Z,370
2018-04-13T08:20:14.723Z,375
2018-04-13T08:21:23.558Z,370
2018-04-13T08:22:32.496Z,360
2018-04-13T08:23:41.334Z,355
2018-04-13T08:24:50.443Z,355
2018-04-13T08:25:59.555Z,355
2018-04-13T08:27:08.393Z,360
2018-04-13T08:28:17.280Z,360
2018-04-13T08:29:26.118Z,360
2018-04-13T08:30:35.255Z,360
2018-04-13T08:31:44.398Z,370
2018-04-13T08:32:53.518Z,380
2018-04-13T08:34:02.544Z,400
2018-04-13T08:35:11.291Z,410
2018-04-13T08:36:20.407Z,400
2018-04-13T08:37:29.244Z,395
2018-04-13T08:38:38.079Z,400
2018-04-13T08:39:46.991Z,410
2018-04-13T08:40:56.079Z,405
2018-04-13T08:42:04.915Z,400
2018-04-13T08:43:13.751Z,400
2018-04-13T08:44:22.590Z,405
2018-04-13T08:45:31.814Z,400
2018-04-13T08:46:40.649Z,380
2018-04-13T08:47:50.065Z,350
2018-04-13T08:48:59.569Z,315
2018-04-13T08:50:08.212Z,295
2018-04-13T08:51:17.084Z,280
2018-04-13T08:52:25.968Z,265
2018-04-13T08:53:35.105Z,260
2018-04-13T08:54:43.952Z,255
2018-04-13T08:55:52.772Z,255
2018-04-13T08:57:02.178Z,250
2018-04-13T08:58:11.289Z,235
2018-04-13T08:59:20.409Z,220
2018-04-13T09:00:29.247Z,210
2018-04-13T09:01:38.361Z,210
2018-04-13T09:02:47.473Z,225
2018-04-13T09:03:56.595Z,235
2018-04-13T09:05:05.430Z,245
2018-04-13T09:06:14.540Z,240
2018-04-13T09:07:23.375Z,240
2018-04-13T09:08:32.312Z,235
2018-04-13T09:09:41.427Z,225
2018-04-13T09:10:50.559Z,220
2018-04-13T09:11:59.645Z,220
2018-04-13T09:13:08.487Z,220
2018-04-13T09:14:17.371Z,220
2018-04-13T09:15:26.220Z,220
2018-04-13T09:16:35.329Z,210
2018-04-13T09:17:44.164Z,195
2018-04-13T09:18:52.997Z,185
2018-04-13T09:20:01.836Z,175
2018-04-13T09:21:10.671Z,160
2018-04-13T09:22:19.507Z,150
2018-04-13T09:23:28.349Z,145
2018-04-13T09:24:37.186Z,150
2018-04-13T09:25:46.171Z,165
2018-04-13T09:26:55.282Z,170
2018-04-13T09:28:04.122Z,165
2018-04-13T09:29:12.956Z,155
2018-04-13T09:30:21.790Z,150
2018-04-13T09:31:30.623Z,155
2018-04-13T09:32:39.460Z,160
2018-04-13T09:33:48.295Z,160
2018-04-13T09:34:57.132Z,155
2018-04-13T09:36:05.968Z,150
2018-04-13T09:37:15.191Z,140
2018-04-13T09:38:24.307Z,135
2018-04-13T09:39:33.148Z,130
2018-04-13T09:40:41.983Z,140
2018-04-13T09:41:50.821Z,155
2018-04-13T09:42:59.706Z,165
2018-04-13T09:44:08.541Z,165
2018-04-13T09:45:17.377Z,155
2018-04-13T09:46:26.493Z,150
2018-04-13T09:47:35.329Z,140
2018-04-13T09:48:44.746Z,135
2018-04-13T09:49:53.860Z,130
2018-04-13T09:51:02.697Z,125
2018-04-13T09:52:11.807Z,125
2018-04-13T09:53:20.638Z,125
2018-04-13T09:54:29.759Z,125
2018-04-13T09:55:38.870Z,115
2018-04-13T09:56:47.705Z,105
2018-04-13T09:57:56.544Z,100
2018-04-13T09:59:05.377Z,95
2018-04-13T10:00:14.365Z,95
2018-04-13T10:01:23.472Z,90
2018-04-13T10:02:32.312Z,85
2018-04-13T10:03:41.147Z,80
2018-04-13T10:04:49.982Z,85
2018-04-13T10:05:58.920Z,90
2018-04-13T10:07:07.756Z,95
2018-04-13T10:08:16.597Z,100
2018-04-13T10:09:25.429Z,105
2018-04-13T10:10:34.538Z,115
2018-04-13T10:11:43.523Z,125
2018-04-13T10:12:52.359Z,130
2018-04-13T10:14:01.470Z,125
2018-04-13T10:15:10.304Z,125
2018-04-13T10:16:19.139Z,120
2018-04-13T10:17:28.248Z,120
2018-04-13T10:18:37.084Z,115
2018-04-13T10:19:45.917Z,110
2018-04-13T10:20:54.752Z,105
2018-04-13T10:22:03.586Z,105
2018-04-13T10:23:12.948Z,110
2018-04-13T10:24:22.056Z,115
2018-04-13T10:25:30.892Z,125
2018-04-13T10:26:39.728Z,130
2018-04-13T10:27:48.564Z,130
2018-04-13T10:28:57.497Z,120
2018-04-13T10:30:06.332Z,110
2018-04-13T10:31:15.169Z,95
2018-04-13T10:32:24.004Z,85
2018-04-13T10:33:33.117Z,80
2018-04-13T10:34:42.062Z,75
2018-04-13T10:35:50.899Z,70
2018-04-13T10:36:59.733Z,75
2018-04-13T10:38:08.568Z,80
2018-04-13T10:39:17.403Z,95
2018-04-13T10:40:26.290Z,110
2018-04-13T10:41:35.125Z,110
2018-04-13T10:42:43.956Z,130
2018-04-13T10:43:53.120Z,150
2018-04-13T10:45:02.236Z,175
2018-04-13T10:46:11.223Z,175
2018-04-13T10:47:20.061Z,170
2018-04-13T10:48:29.174Z,180
2018-04-13T10:49:38.010Z,195
2018-04-13T10:50:47.116Z,220
2018-04-13T10:51:55.950Z,245
2018-04-13T10:53:04.786Z,255
2018-04-13T10:54:14.172Z,260
2018-04-13T10:55:23.007Z,280
2018-04-13T10:56:31.843Z,310
2018-04-13T10:57:40.727Z,330
2018-04-13T10:58:49.833Z,340
2018-04-13T10:59:58.941Z,345
2018-04-13T11:01:07.776Z,330
2018-04-13T11:02:16.612Z,310
2018-04-13T11:03:26.225Z,300
2018-04-13T11:04:35.059Z,275
2018-04-13T11:05:44.219Z,260
2018-04-13T11:06:53.056Z,255
2018-04-13T11:08:01.895Z,245
2018-04-13T11:09:10.981Z,220
2018-04-13T11:10:20.124Z,200
2018-04-13T11:11:28.938Z,205
2018-04-13T11:12:38.045Z,230
2018-04-13T11:13:46.887Z,275
2018-04-13T11:14:55.773Z,305
2018-04-13T11:16:04.895Z,325
2018-04-13T11:17:13.732Z,355
2018-04-13T11:18:22.568Z,370
2018-04-13T11:19:31.403Z,340
2018-04-13T11:20:40.389Z,315
2018-04-13T11:21:49.223Z,300
2018-04-13T11:22:58.058Z,285
2018-04-13T11:24:06.902Z,245
2018-04-13T11:25:15.737Z,245
2018-04-13T11:26:25.007Z,275
2018-04-13T11:27:33.847Z,305
2018-04-13T11:28:42.958Z,305
2018-04-13T11:29:51.792Z,290
2018-04-13T11:31:00.635Z,280
2018-04-13T11:32:09.522Z,270
2018-04-13T11:33:18.357Z,265
2018-04-13T11:34:27.469Z,275
2018-04-13T11:35:36.580Z,305
2018-04-13T11:36:45.420Z,350
2018-04-13T11:37:54.356Z,365
2018-04-13T11:39:03.198Z,350
2018-04-13T11:40:12.589Z,330
2018-04-13T11:41:21.990Z,305
2018-04-13T11:42:31.109Z,285
2018-04-13T11:43:40.096Z,265
2018-04-13T11:44:48.933Z,250
2018-04-13T11:45:57.777Z,250
2018-04-13T11:47:06.619Z,260
2018-04-13T11:48:15.740Z,270
2018-04-13T11:49:24.891Z,285
2018-04-13T11:50:33.714Z,300
2018-04-13T11:51:42.565Z,315
2018-04-13T11:52:51.396Z,305
2018-04-13T11:54:00.233Z,295
2018-04-13T11:55:09.319Z,290
2018-04-13T11:56:18.155Z,295
2018-04-13T11:57:26.990Z,310
2018-04-13T11:58:35.835Z,325
2018-04-13T11:59:44.682Z,345
2018-04-13T12:00:53.671Z,365
2018-04-13T12:02:02.509Z,370
2018-04-13T12:03:11.348Z,385
2018-04-13T12:04:20.184Z,385
2018-04-13T12:05:29.023Z,390
2018-04-13T12:06:37.907Z,395
2018-04-13T12:07:46.741Z,400
2018-04-13T12:08:55.578Z,400
2018-04-13T12:10:04.415Z,400
2018-04-13T12:11:13.254Z,400
2018-04-13T12:12:22.141Z,420
2018-04-13T12:13:30.977Z,445
2018-04-13T12:14:39.825Z,480
2018-04-13T12:15:48.661Z,500
2018-04-13T12:16:57.499Z,485
2018-04-13T12:18:06.434Z,460
2018-04-13T12:19:15.551Z,445
2018-04-13T12:20:24.661Z,450
2018-04-13T12:21:33.498Z,510
2018-04-13T12:22:42.612Z,460
2018-04-13T12:23:51.749Z,405
2018-04-13T12:25:00.587Z,355
2018-04-13T12:26:09.426Z,310
2018-04-13T12:27:18.267Z,285
2018-04-13T12:28:27.379Z,265
2018-04-13T12:29:36.737Z,250
2018-04-13T12:30:45.573Z,235
2018-04-13T12:31:54.411Z,215
2018-04-13T12:33:03.251Z,210
2018-04-13T12:34:12.140Z,200
2018-04-13T12:35:20.978Z,190
2018-04-13T12:36:29.823Z,185
2018-04-13T12:37:38.934Z,180
2018-04-13T12:38:48.050Z,175
2018-04-13T12:39:57.159Z,175
2018-04-13T12:41:06.050Z,175
2018-04-13T12:42:14.888Z,180
2018-04-13T12:43:23.999Z,185
2018-04-13T12:44:32.840Z,190
2018-04-13T12:45:41.677Z,200
2018-04-13T12:46:50.815Z,215
2018-04-13T12:47:59.651Z,235
2018-04-13T12:49:09.240Z,260
2018-04-13T12:50:18.077Z,285
2018-04-13T12:51:26.914Z,315
2018-04-13T12:52:35.939Z,330
2018-04-13T12:53:45.068Z,335
2018-04-13T12:54:54.417Z,315
2018-04-13T12:56:04.069Z,300
2018-04-13T12:57:13.133Z,290
2018-04-13T12:58:22.020Z,285
2018-04-13T12:59:30.856Z,280
2018-04-13T13:00:39.697Z,275
2018-04-13T13:01:48.529Z,270
2018-04-13T13:02:57.641Z,275
2018-04-13T13:04:06.529Z,285
2018-04-13T13:05:15.363Z,300
2018-04-13T13:06:24.476Z,325
2018-04-13T13:07:33.587Z,360
2018-04-13T13:08:42.431Z,400
2018-04-13T13:09:51.509Z,400
2018-04-13T13:11:00.623Z,395
2018-04-13T13:12:09.733Z,380
2018-04-13T13:13:18.571Z,375
2018-04-13T13:14:27.410Z,380
2018-04-13T13:15:36.319Z,380
2018-04-13T13:16:45.127Z,385
2018-04-13T13:17:53.962Z,390
2018-04-13T13:19:02.797Z,425
2018-04-13T13:20:11.635Z,445
2018-04-13T13:21:20.672Z,435
2018-04-13T13:22:29.515Z,435
2018-04-13T13:23:38.616Z,435
2018-04-13T13:24:47.452Z,435
2018-04-13T13:25:56.288Z,425
2018-04-13T13:27:05.125Z,440
2018-04-13T13:28:14.247Z,475
2018-04-13T13:29:23.086Z,520
2018-04-13T13:30:31.925Z,565
2018-04-13T13:31:40.802Z,635
2018-04-13T13:32:50.071Z,715
2018-04-13T13:33:58.904Z,830
2018-04-13T13:35:08.303Z,1025
2018-04-13T13:36:17.138Z,925
2018-04-13T13:37:26.275Z,845
2018-04-13T13:38:35.095Z,700
2018-04-13T13:39:43.934Z,625
2018-04-13T13:40:53.046Z,575
2018-04-13T13:42:01.886Z,555
2018-04-13T13:43:10.717Z,545
2018-04-13T13:44:19.828Z,540
2018-04-13T13:45:28.937Z,480
2018-04-13T13:46:37.781Z,445
2018-04-13T13:47:46.894Z,430
2018-04-13T13:48:55.733Z,440
2018-04-13T13:50:04.770Z,465
2018-04-13T13:51:13.614Z,495
2018-04-13T13:52:22.726Z,510
2018-04-13T13:53:31.565Z,525
2018-04-13T13:54:40.402Z,520
2018-04-13T13:55:49.661Z,495
2018-04-13T13:56:58.501Z,465
2018-04-13T13:58:07.343Z,440
2018-04-13T13:59:16.186Z,405
2018-04-13T14:00:25.022Z,370
2018-04-13T14:01:33.908Z,370
2018-04-13T14:02:42.746Z,400
2018-04-13T14:03:51.857Z,450
2018-04-13T14:05:00.696Z,380
2018-04-13T14:06:09.533Z,345
2018-04-13T14:07:18.713Z,335
2018-04-13T14:08:27.823Z,315
2018-04-13T14:09:37.009Z,285
2018-04-13T14:10:45.845Z,255
2018-04-13T14:11:54.681Z,235
2018-04-13T14:13:03.569Z,215
2018-04-13T14:14:12.406Z,200
2018-04-13T14:15:21.532Z,180
2018-04-13T14:16:30.640Z,165
2018-04-13T14:17:39.474Z,145
2018-04-13T14:18:48.517Z,125
2018-04-13T14:19:57.353Z,115
2018-04-13T14:21:06.188Z,105
2018-04-13T14:22:15.028Z,95
2018-04-13T14:23:23.859Z,95
2018-04-13T14:24:32.852Z,95
2018-04-13T14:25:41.961Z,95
2018-04-13T14:26:50.797Z,90
2018-04-13T14:27:59.636Z,85
2018-04-13T14:29:08.480Z,75
2018-04-13T14:30:17.369Z,70
2018-04-13T14:31:26.155Z,65
2018-04-13T14:32:35.273Z,60
2018-04-13T14:33:44.434Z,55
2018-04-13T14:34:53.266Z,50
2018-04-13T14:36:02.103Z,45
2018-04-13T14:37:11.214Z,45
2018-04-13T14:38:20.052Z,40
2018-04-13T14:39:28.897Z,35
2018-04-13T14:40:37.734Z,35
2018-04-13T14:41:46.569Z,30
2018-04-13T14:42:55.404Z,30
2018-04-13T14:44:04.545Z,30
2018-04-13T14:45:13.387Z,30
2018-04-13T14:46:22.223Z,30
2018-04-13T14:47:31.056Z,30
2018-04-13T14:48:39.892Z,35
2018-04-13T14:49:48.729Z,35
2018-04-13T14:50:57.576Z,35
2018-04-13T14:52:06.404Z,35
2018-04-13T14:53:15.239Z,35
2018-04-13T14:54:24.088Z,35
2018-04-13T14:55:32.924Z,30
2018-04-13T14:56:41.770Z,30
2018-04-13T14:57:50.879Z,30
2018-04-13T14:58:59.718Z,30
2018-04-13T15:00:08.832Z,30
2018-04-13T15:01:18.224Z,30
2018-04-13T15:02:27.334Z,30
2018-04-13T15:03:36.170Z,30
2018-04-13T15:04:45.078Z,30
2018-04-13T15:05:53.937Z,35
2018-04-13T15:07:02.885Z,35
2018-04-13T15:08:11.733Z,40
2018-04-13T15:09:20.577Z,40
2018-04-13T15:10:29.423Z,40
2018-04-13T15:11:38.271Z,40
2018-04-13T15:12:47.514Z,45
2018-04-13T15:13:56.364Z,45
2018-04-13T15:15:05.506Z,45
2018-04-13T15:16:14.618Z,45
2018-04-13T15:17:23.456Z,45
2018-04-13T15:18:32.408Z,45
2018-04-13T15:19:41.576Z,45
2018-04-13T15:20:50.409Z,45
2018-04-13T15:21:59.597Z,45
2018-04-13T15:23:08.712Z,40
2018-04-13T15:24:17.837Z,45
2018-04-13T15:25:26.947Z,45
2018-04-13T15:26:35.781Z,45
2018-04-13T15:27:44.631Z,40
2018-04-13T15:28:53.577Z,40
2018-04-13T15:30:02.838Z,40
2018-04-13T15:31:11.674Z,40
2018-04-13T15:32:20.784Z,45
2018-04-13T15:33:29.688Z,50
2018-04-13T15:34:38.523Z,50
2018-04-13T15:35:47.358Z,55
2018-04-13T15:36:56.755Z,55
2018-04-13T15:38:05.592Z,45
2018-04-13T15:39:14.426Z,35
2018-04-13T15:40:23.994Z,20
2018-04-13T15:41:32.948Z,15
2018-04-13T15:42:41.782Z,10
2018-04-13T15:43:50.615Z,10
2018-04-13T15:44:59.942Z,10
2018-04-13T15:46:08.773Z,10
2018-04-13T15:47:17.864Z,10
2018-04-13T15:48:26.988Z,10
2018-04-13T15:49:36.175Z,10
2018-04-13T15:50:45.012Z,10
2018-04-13T15:51:54.105Z,10
2018-04-13T15:53:03.237Z,10
2018-04-13T15:54:12.460Z,15
2018-04-13T15:55:21.293Z,20
2018-04-13T15:56:30.144Z,30
2018-04-13T15:57:39.255Z,35
2018-04-13T15:58:49.260Z,40
2018-04-13T15:59:58.098Z,45
2018-04-13T16:01:07.210Z,55
2018-04-13T16:02:16.063Z,40
2018-04-13T16:03:24.896Z,35
2018-04-13T16:04:33.881Z,25
2018-04-13T16:05:42.721Z,20
2018-04-13T16:06:51.558Z,20
2018-04-13T16:08:00.670Z,25
2018-04-13T16:09:09.505Z,35
2018-04-13T16:10:18.339Z,45
2018-04-13T16:11:27.198Z,50
2018-04-13T16:12:36.033Z,55
2018-04-13T16:13:44.870Z,55
2018-04-13T16:14:53.977Z,60
2018-04-13T16:16:02.810Z,50